sensor_id;sensor_type;location;lat;lon;timestamp;temperature;humidity
18611;DHT22;9435;52.122;5.502;2023-03-23T00:00:59;11.40;99.90
18611;DHT22;9435;52.122;5.502;2023-03-23T00:03:26;11.40;99.90
18611;DHT22;9435;52.122;5.502;2023-03-23T00:05:54;11.40;99.90
18611;DHT22;9435;52.122;5.502;2023-03-23T00:08:30;11.40;99.90
18611;DHT22;9435;52.122;5.502;2023-03-23T00:10:58;11.40;99.90
18611;DHT22;9435;52.122;5.502;2023-03-23T00:13:28;11.40;99.90
18611;DHT22;9435;52.122;5.502;2023-03-23T00:15:56;11.40;99.90
18611;DHT22;9435;52.122;5.502;2023-03-23T00:18:24;11.40;99.90
18611;DHT22;9435;52.122;5.502;2023-03-23T00:20:52;11.40;99.90
18611;DHT22;9435;52.122;5.502;2023-03-23T00:23:22;11.40;99.90
18611;DHT22;9435;52.122;5.502;2023-03-23T00:25:51;11.40;99.90
18611;DHT22;9435;52.122;5.502;2023-03-23T00:28:20;11.40;99.90
18611;DHT22;9435;52.122;5.502;2023-03-23T00:30:56;11.40;99.90
18611;DHT22;9435;52.122;5.502;2023-03-23T00:33:24;11.50;99.90
18611;DHT22;9435;52.122;5.502;2023-03-23T00:35:52;11.50;99.90
18611;DHT22;9435;52.122;5.502;2023-03-23T00:38:20;11.60;99.90
18611;DHT22;9435;52.122;5.502;2023-03-23T00:40:48;11.70;99.90
18611;DHT22;9435;52.122;5.502;2023-03-23T00:43:16;11.60;99.90
18611;DHT22;9435;52.122;5.502;2023-03-23T00:45:44;11.60;99.90
18611;DHT22;9435;52.122;5.502;2023-03-23T00:48:16;11.60;99.90
18611;DHT22;9435;52.122;5.502;2023-03-23T00:50:44;11.60;99.90
18611;DHT22;9435;52.122;5.502;2023-03-23T00:53:11;11.60;99.90
18611;DHT22;9435;52.122;5.502;2023-03-23T00:55:39;11.60;99.90
18611;DHT22;9435;52.122;5.502;2023-03-23T00:58:06;11.60;99.90
18611;DHT22;9435;52.122;5.502;2023-03-23T01:00:33;11.60;99.90
18611;DHT22;9435;52.122;5.502;2023-03-23T01:03:01;11.60;99.90
18611;DHT22;9435;52.122;5.502;2023-03-23T01:05:29;11.60;99.90
18611;DHT22;9435;52.122;5.502;2023-03-23T01:07:58;11.60;99.90
18611;DHT22;9435;52.122;5.502;2023-03-23T01:10:25;11.60;99.90
18611;DHT22;9435;52.122;5.502;2023-03-23T01:12:53;11.60;99.90
18611;DHT22;9435;52.122;5.502;2023-03-23T01:15:21;11.60;99.90
18611;DHT22;9435;52.122;5.502;2023-03-23T01:17:48;11.60;99.90
18611;DHT22;9435;52.122;5.502;2023-03-23T01:20:15;11.60;99.90
18611;DHT22;9435;52.122;5.502;2023-03-23T01:22:44;11.60;99.90
18611;DHT22;9435;52.122;5.502;2023-03-23T01:25:12;11.70;99.90
18611;DHT22;9435;52.122;5.502;2023-03-23T01:27:40;11.60;99.90
18611;DHT22;9435;52.122;5.502;2023-03-23T01:30:10;11.60;99.90
18611;DHT22;9435;52.122;5.502;2023-03-23T01:32:38;11.60;99.90
18611;DHT22;9435;52.122;5.502;2023-03-23T01:35:05;11.60;99.90
18611;DHT22;9435;52.122;5.502;2023-03-23T01:37:32;11.60;99.90
18611;DHT22;9435;52.122;5.502;2023-03-23T01:40:01;11.70;99.90
18611;DHT22;9435;52.122;5.502;2023-03-23T01:42:31;11.70;99.90
18611;DHT22;9435;52.122;5.502;2023-03-23T01:45:28;11.70;99.90
18611;DHT22;9435;52.122;5.502;2023-03-23T01:48:04;11.70;99.90
18611;DHT22;9435;52.122;5.502;2023-03-23T01:50:36;11.70;99.90
18611;DHT22;9435;52.122;5.502;2023-03-23T01:53:06;11.70;99.90
18611;DHT22;9435;52.122;5.502;2023-03-23T01:55:37;11.70;99.90
18611;DHT22;9435;52.122;5.502;2023-03-23T01:58:08;11.70;99.90
18611;DHT22;9435;52.122;5.502;2023-03-23T02:00:36;11.70;99.90
18611;DHT22;9435;52.122;5.502;2023-03-23T02:03:06;11.70;99.90
18611;DHT22;9435;52.122;5.502;2023-03-23T02:05:38;11.70;99.90
18611;DHT22;9435;52.122;5.502;2023-03-23T02:08:07;11.70;99.90
18611;DHT22;9435;52.122;5.502;2023-03-23T02:10:37;11.60;99.90
18611;DHT22;9435;52.122;5.502;2023-03-23T02:13:06;11.60;99.90
18611;DHT22;9435;52.122;5.502;2023-03-23T02:15:41;11.60;99.90
18611;DHT22;9435;52.122;5.502;2023-03-23T02:18:14;11.70;99.90
18611;DHT22;9435;52.122;5.502;2023-03-23T02:24:04;11.60;99.90
18611;DHT22;9435;52.122;5.502;2023-03-23T02:26:47;11.70;99.90
18611;DHT22;9435;52.122;5.502;2023-03-23T02:29:49;11.70;99.90
18611;DHT22;9435;52.122;5.502;2023-03-23T02:32:32;11.70;99.90
18611;DHT22;9435;52.122;5.502;2023-03-23T02:35:10;11.70;99.90
18611;DHT22;9435;52.122;5.502;2023-03-23T02:37:42;11.70;99.90
18611;DHT22;9435;52.122;5.502;2023-03-23T02:40:15;11.70;99.90
18611;DHT22;9435;52.122;5.502;2023-03-23T02:42:47;11.70;99.90
18611;DHT22;9435;52.122;5.502;2023-03-23T02:45:16;11.80;99.90
18611;DHT22;9435;52.122;5.502;2023-03-23T02:47:44;11.70;99.90
18611;DHT22;9435;52.122;5.502;2023-03-23T02:50:15;11.70;99.90
18611;DHT22;9435;52.122;5.502;2023-03-23T02:52:45;11.70;99.90
18611;DHT22;9435;52.122;5.502;2023-03-23T02:55:14;11.70;99.90
18611;DHT22;9435;52.122;5.502;2023-03-23T02:57:42;11.70;99.90
18611;DHT22;9435;52.122;5.502;2023-03-23T03:00:13;11.70;99.90
18611;DHT22;9435;52.122;5.502;2023-03-23T03:02:43;11.70;99.90
18611;DHT22;9435;52.122;5.502;2023-03-23T03:05:18;11.70;99.90
18611;DHT22;9435;52.122;5.502;2023-03-23T03:07:53;11.70;99.90
18611;DHT22;9435;52.122;5.502;2023-03-23T03:10:26;11.90;99.90
18611;DHT22;9435;52.122;5.502;2023-03-23T03:12:58;11.80;99.90
18611;DHT22;9435;52.122;5.502;2023-03-23T03:15:33;11.80;99.90
18611;DHT22;9435;52.122;5.502;2023-03-23T03:18:07;11.90;99.90
18611;DHT22;9435;52.122;5.502;2023-03-23T03:20:43;11.90;99.90
18611;DHT22;9435;52.122;5.502;2023-03-23T03:23:11;12.00;99.90
18611;DHT22;9435;52.122;5.502;2023-03-23T03:25:40;12.00;99.90
18611;DHT22;9435;52.122;5.502;2023-03-23T03:28:14;12.10;99.90
18611;DHT22;9435;52.122;5.502;2023-03-23T03:30:43;12.10;99.90
18611;DHT22;9435;52.122;5.502;2023-03-23T03:33:12;12.10;99.90
18611;DHT22;9435;52.122;5.502;2023-03-23T03:35:42;12.10;99.90
18611;DHT22;9435;52.122;5.502;2023-03-23T03:38:11;12.10;99.90
18611;DHT22;9435;52.122;5.502;2023-03-23T03:40:38;12.10;99.90
18611;DHT22;9435;52.122;5.502;2023-03-23T03:43:06;12.10;99.90
18611;DHT22;9435;52.122;5.502;2023-03-23T03:45:33;12.10;99.90
18611;DHT22;9435;52.122;5.502;2023-03-23T03:48:01;12.10;99.90
18611;DHT22;9435;52.122;5.502;2023-03-23T03:50:28;12.20;99.90
18611;DHT22;9435;52.122;5.502;2023-03-23T03:52:57;12.20;99.90
18611;DHT22;9435;52.122;5.502;2023-03-23T03:55:24;12.10;99.90
18611;DHT22;9435;52.122;5.502;2023-03-23T03:57:53;12.20;99.90
18611;DHT22;9435;52.122;5.502;2023-03-23T04:00:21;12.10;99.90
18611;DHT22;9435;52.122;5.502;2023-03-23T04:02:50;12.10;99.90
18611;DHT22;9435;52.122;5.502;2023-03-23T04:05:19;12.20;99.90
18611;DHT22;9435;52.122;5.502;2023-03-23T04:07:47;12.20;99.90
18611;DHT22;9435;52.122;5.502;2023-03-23T04:10:19;12.20;99.90
18611;DHT22;9435;52.122;5.502;2023-03-23T04:12:48;12.20;99.90
18611;DHT22;9435;52.122;5.502;2023-03-23T04:15:15;12.10;99.90
18611;DHT22;9435;52.122;5.502;2023-03-23T04:17:42;12.20;99.90
18611;DHT22;9435;52.122;5.502;2023-03-23T04:20:11;12.20;99.90
18611;DHT22;9435;52.122;5.502;2023-03-23T04:22:43;12.20;99.90
18611;DHT22;9435;52.122;5.502;2023-03-23T04:25:11;12.20;99.90
18611;DHT22;9435;52.122;5.502;2023-03-23T04:27:41;12.30;99.90
18611;DHT22;9435;52.122;5.502;2023-03-23T04:30:13;12.30;99.90
18611;DHT22;9435;52.122;5.502;2023-03-23T04:32:40;12.30;99.90
18611;DHT22;9435;52.122;5.502;2023-03-23T04:35:10;12.30;99.90
18611;DHT22;9435;52.122;5.502;2023-03-23T04:37:38;12.30;99.90
18611;DHT22;9435;52.122;5.502;2023-03-23T04:40:08;12.30;99.90
18611;DHT22;9435;52.122;5.502;2023-03-23T04:42:38;12.30;99.90
18611;DHT22;9435;52.122;5.502;2023-03-23T04:45:08;12.30;99.90
18611;DHT22;9435;52.122;5.502;2023-03-23T04:47:36;12.40;99.90
18611;DHT22;9435;52.122;5.502;2023-03-23T04:50:08;12.40;99.90
18611;DHT22;9435;52.122;5.502;2023-03-23T04:52:36;12.40;99.90
18611;DHT22;9435;52.122;5.502;2023-03-23T04:55:06;12.30;99.90
18611;DHT22;9435;52.122;5.502;2023-03-23T04:57:34;12.40;99.90
18611;DHT22;9435;52.122;5.502;2023-03-23T05:00:04;12.40;99.90
18611;DHT22;9435;52.122;5.502;2023-03-23T05:02:36;12.40;99.90
18611;DHT22;9435;52.122;5.502;2023-03-23T05:05:05;12.30;99.90
18611;DHT22;9435;52.122;5.502;2023-03-23T05:07:32;12.30;99.90
18611;DHT22;9435;52.122;5.502;2023-03-23T05:10:00;12.30;99.90
18611;DHT22;9435;52.122;5.502;2023-03-23T05:12:27;12.30;99.90
18611;DHT22;9435;52.122;5.502;2023-03-23T05:14:54;12.20;99.90
18611;DHT22;9435;52.122;5.502;2023-03-23T05:17:21;12.20;99.90
18611;DHT22;9435;52.122;5.502;2023-03-23T05:19:51;12.40;99.90
18611;DHT22;9435;52.122;5.502;2023-03-23T05:22:19;12.30;99.90
18611;DHT22;9435;52.122;5.502;2023-03-23T05:24:48;12.30;99.90
18611;DHT22;9435;52.122;5.502;2023-03-23T05:27:18;12.30;99.90
18611;DHT22;9435;52.122;5.502;2023-03-23T05:29:46;12.20;99.90
18611;DHT22;9435;52.122;5.502;2023-03-23T05:32:14;12.20;99.90
18611;DHT22;9435;52.122;5.502;2023-03-23T05:34:42;12.20;99.90
18611;DHT22;9435;52.122;5.502;2023-03-23T05:37:10;12.10;99.90
18611;DHT22;9435;52.122;5.502;2023-03-23T05:39:39;12.10;99.90
18611;DHT22;9435;52.122;5.502;2023-03-23T05:42:07;12.10;99.90
18611;DHT22;9435;52.122;5.502;2023-03-23T05:44:39;12.00;99.90
18611;DHT22;9435;52.122;5.502;2023-03-23T05:47:06;12.00;99.90
18611;DHT22;9435;52.122;5.502;2023-03-23T05:49:33;12.00;99.90
18611;DHT22;9435;52.122;5.502;2023-03-23T05:52:02;11.90;99.90
18611;DHT22;9435;52.122;5.502;2023-03-23T05:54:30;11.90;99.90
18611;DHT22;9435;52.122;5.502;2023-03-23T05:56:57;11.90;99.90
18611;DHT22;9435;52.122;5.502;2023-03-23T05:59:25;11.90;99.90
18611;DHT22;9435;52.122;5.502;2023-03-23T06:01:52;11.80;99.90
18611;DHT22;9435;52.122;5.502;2023-03-23T06:04:21;11.80;99.90
18611;DHT22;9435;52.122;5.502;2023-03-23T06:06:51;11.80;99.90
18611;DHT22;9435;52.122;5.502;2023-03-23T06:09:26;11.80;99.90
18611;DHT22;9435;52.122;5.502;2023-03-23T06:11:55;11.70;99.90
18611;DHT22;9435;52.122;5.502;2023-03-23T06:14:23;11.60;99.90
18611;DHT22;9435;52.122;5.502;2023-03-23T06:16:51;11.50;99.90
18611;DHT22;9435;52.122;5.502;2023-03-23T06:19:18;11.40;99.90
18611;DHT22;9435;52.122;5.502;2023-03-23T06:21:46;11.30;99.90
18611;DHT22;9435;52.122;5.502;2023-03-23T06:24:13;11.20;99.90
18611;DHT22;9435;52.122;5.502;2023-03-23T06:26:40;11.20;99.90
18611;DHT22;9435;52.122;5.502;2023-03-23T06:29:11;11.20;99.90
18611;DHT22;9435;52.122;5.502;2023-03-23T06:31:40;11.10;99.90
18611;DHT22;9435;52.122;5.502;2023-03-23T06:34:08;11.10;99.90
18611;DHT22;9435;52.122;5.502;2023-03-23T06:36:37;11.10;99.90
18611;DHT22;9435;52.122;5.502;2023-03-23T06:39:05;11.10;99.90
18611;DHT22;9435;52.122;5.502;2023-03-23T06:41:32;11.10;99.90
18611;DHT22;9435;52.122;5.502;2023-03-23T06:44:00;11.10;99.90
18611;DHT22;9435;52.122;5.502;2023-03-23T06:46:28;11.10;99.90
18611;DHT22;9435;52.122;5.502;2023-03-23T06:48:55;11.10;99.90
18611;DHT22;9435;52.122;5.502;2023-03-23T06:51:22;11.10;99.90
18611;DHT22;9435;52.122;5.502;2023-03-23T06:53:50;11.10;99.90
18611;DHT22;9435;52.122;5.502;2023-03-23T06:56:17;11.10;99.90
18611;DHT22;9435;52.122;5.502;2023-03-23T06:58:44;11.10;99.90
18611;DHT22;9435;52.122;5.502;2023-03-23T07:01:12;11.10;99.90
18611;DHT22;9435;52.122;5.502;2023-03-23T07:03:42;11.10;99.90
18611;DHT22;9435;52.122;5.502;2023-03-23T07:06:09;11.10;99.90
18611;DHT22;9435;52.122;5.502;2023-03-23T07:08:37;11.10;99.90
18611;DHT22;9435;52.122;5.502;2023-03-23T07:11:04;11.20;99.90
18611;DHT22;9435;52.122;5.502;2023-03-23T07:13:32;11.30;99.90
18611;DHT22;9435;52.122;5.502;2023-03-23T07:15:59;11.20;99.90
18611;DHT22;9435;52.122;5.502;2023-03-23T07:18:27;11.30;99.90
18611;DHT22;9435;52.122;5.502;2023-03-23T07:20:55;11.30;99.90
18611;DHT22;9435;52.122;5.502;2023-03-23T07:23:22;11.30;99.90
18611;DHT22;9435;52.122;5.502;2023-03-23T07:25:49;11.40;99.90
18611;DHT22;9435;52.122;5.502;2023-03-23T07:28:17;11.40;99.90
18611;DHT22;9435;52.122;5.502;2023-03-23T07:30:45;11.30;99.90
18611;DHT22;9435;52.122;5.502;2023-03-23T07:33:12;11.40;99.90
18611;DHT22;9435;52.122;5.502;2023-03-23T07:35:39;11.50;99.90
18611;DHT22;9435;52.122;5.502;2023-03-23T07:38:08;11.50;99.90
18611;DHT22;9435;52.122;5.502;2023-03-23T07:40:36;11.60;99.90
18611;DHT22;9435;52.122;5.502;2023-03-23T07:43:03;11.60;99.90
18611;DHT22;9435;52.122;5.502;2023-03-23T07:45:31;11.70;99.90
18611;DHT22;9435;52.122;5.502;2023-03-23T07:47:58;11.70;99.90
18611;DHT22;9435;52.122;5.502;2023-03-23T07:50:26;11.60;99.90
18611;DHT22;9435;52.122;5.502;2023-03-23T07:52:55;11.60;99.90
18611;DHT22;9435;52.122;5.502;2023-03-23T07:55:25;11.60;99.90
18611;DHT22;9435;52.122;5.502;2023-03-23T07:57:53;11.60;99.90
18611;DHT22;9435;52.122;5.502;2023-03-23T08:00:21;11.60;99.90
18611;DHT22;9435;52.122;5.502;2023-03-23T08:02:50;11.60;99.90
18611;DHT22;9435;52.122;5.502;2023-03-23T08:05:18;11.70;99.90
18611;DHT22;9435;52.122;5.502;2023-03-23T08:07:46;11.60;99.90
18611;DHT22;9435;52.122;5.502;2023-03-23T08:10:14;11.70;99.90
18611;DHT22;9435;52.122;5.502;2023-03-23T08:12:44;11.70;99.90
18611;DHT22;9435;52.122;5.502;2023-03-23T08:15:13;11.70;99.90
18611;DHT22;9435;52.122;5.502;2023-03-23T08:17:41;11.60;99.90
18611;DHT22;9435;52.122;5.502;2023-03-23T08:20:10;11.60;99.90
18611;DHT22;9435;52.122;5.502;2023-03-23T08:22:38;11.60;99.90
18611;DHT22;9435;52.122;5.502;2023-03-23T08:25:07;11.60;99.90
18611;DHT22;9435;52.122;5.502;2023-03-23T08:27:35;11.60;99.90
18611;DHT22;9435;52.122;5.502;2023-03-23T08:30:05;11.60;99.90
18611;DHT22;9435;52.122;5.502;2023-03-23T08:32:32;11.60;99.90
18611;DHT22;9435;52.122;5.502;2023-03-23T08:35:00;11.60;99.90
18611;DHT22;9435;52.122;5.502;2023-03-23T08:37:27;11.60;99.90
18611;DHT22;9435;52.122;5.502;2023-03-23T08:39:54;11.60;99.90
18611;DHT22;9435;52.122;5.502;2023-03-23T08:42:23;11.60;99.90
18611;DHT22;9435;52.122;5.502;2023-03-23T08:44:50;11.70;99.90
18611;DHT22;9435;52.122;5.502;2023-03-23T08:47:19;11.80;99.90
18611;DHT22;9435;52.122;5.502;2023-03-23T08:49:46;11.80;99.90
18611;DHT22;9435;52.122;5.502;2023-03-23T08:52:18;11.90;99.90
18611;DHT22;9435;52.122;5.502;2023-03-23T08:54:45;12.00;99.90
18611;DHT22;9435;52.122;5.502;2023-03-23T08:57:13;11.90;99.90
18611;DHT22;9435;52.122;5.502;2023-03-23T08:59:41;11.90;99.90
18611;DHT22;9435;52.122;5.502;2023-03-23T09:02:10;11.90;99.90
18611;DHT22;9435;52.122;5.502;2023-03-23T09:04:38;11.90;99.90
18611;DHT22;9435;52.122;5.502;2023-03-23T09:07:08;12.20;99.90
18611;DHT22;9435;52.122;5.502;2023-03-23T09:09:37;12.40;99.90
18611;DHT22;9435;52.122;5.502;2023-03-23T09:12:05;12.50;99.90
18611;DHT22;9435;52.122;5.502;2023-03-23T09:14:32;12.70;99.90
18611;DHT22;9435;52.122;5.502;2023-03-23T09:16:59;12.60;99.90
18611;DHT22;9435;52.122;5.502;2023-03-23T09:19:27;12.60;99.90
18611;DHT22;9435;52.122;5.502;2023-03-23T09:21:55;12.50;99.90
18611;DHT22;9435;52.122;5.502;2023-03-23T09:24:23;12.40;99.90
18611;DHT22;9435;52.122;5.502;2023-03-23T09:26:50;12.60;99.90
18611;DHT22;9435;52.122;5.502;2023-03-23T09:29:18;12.60;99.90
18611;DHT22;9435;52.122;5.502;2023-03-23T09:31:46;12.70;99.90
18611;DHT22;9435;52.122;5.502;2023-03-23T09:34:14;12.70;99.90
18611;DHT22;9435;52.122;5.502;2023-03-23T09:36:42;12.70;99.90
18611;DHT22;9435;52.122;5.502;2023-03-23T09:39:11;12.80;99.90
18611;DHT22;9435;52.122;5.502;2023-03-23T09:42:07;12.80;99.90
18611;DHT22;9435;52.122;5.502;2023-03-23T09:44:49;12.70;99.90
18611;DHT22;9435;52.122;5.502;2023-03-23T09:47:25;13.00;99.90
18611;DHT22;9435;52.122;5.502;2023-03-23T09:49:59;13.10;99.90
18611;DHT22;9435;52.122;5.502;2023-03-23T09:52:35;13.10;99.90
18611;DHT22;9435;52.122;5.502;2023-03-23T09:55:07;12.90;99.90
18611;DHT22;9435;52.122;5.502;2023-03-23T09:57:40;13.00;99.90
18611;DHT22;9435;52.122;5.502;2023-03-23T10:00:12;13.10;99.90
18611;DHT22;9435;52.122;5.502;2023-03-23T10:02:45;13.00;99.90
18611;DHT22;9435;52.122;5.502;2023-03-23T10:05:28;13.00;99.90
18611;DHT22;9435;52.122;5.502;2023-03-23T10:07:56;13.00;99.90
18611;DHT22;9435;52.122;5.502;2023-03-23T10:10:31;13.20;99.90
18611;DHT22;9435;52.122;5.502;2023-03-23T10:13:02;13.30;99.90
18611;DHT22;9435;52.122;5.502;2023-03-23T10:15:33;13.10;99.90
18611;DHT22;9435;52.122;5.502;2023-03-23T10:18:03;13.10;99.90
18611;DHT22;9435;52.122;5.502;2023-03-23T10:20:36;13.00;99.90
18611;DHT22;9435;52.122;5.502;2023-03-23T10:23:13;13.10;99.90
18611;DHT22;9435;52.122;5.502;2023-03-23T10:25:45;13.50;99.90
18611;DHT22;9435;52.122;5.502;2023-03-23T10:28:18;13.50;99.90
18611;DHT22;9435;52.122;5.502;2023-03-23T10:30:48;13.50;99.90
18611;DHT22;9435;52.122;5.502;2023-03-23T10:33:20;13.80;99.90
18611;DHT22;9435;52.122;5.502;2023-03-23T10:35:54;13.70;99.90
18611;DHT22;9435;52.122;5.502;2023-03-23T10:38:29;13.40;99.90
18611;DHT22;9435;52.122;5.502;2023-03-23T10:41:03;13.30;99.90
18611;DHT22;9435;52.122;5.502;2023-03-23T10:43:32;13.30;99.90
18611;DHT22;9435;52.122;5.502;2023-03-23T10:46:02;13.40;99.90
18611;DHT22;9435;52.122;5.502;2023-03-23T10:48:35;13.30;99.90
18611;DHT22;9435;52.122;5.502;2023-03-23T10:51:08;13.20;99.90
18611;DHT22;9435;52.122;5.502;2023-03-23T10:53:38;13.20;99.90
18611;DHT22;9435;52.122;5.502;2023-03-23T10:56:21;13.40;99.90
18611;DHT22;9435;52.122;5.502;2023-03-23T10:58:49;13.40;99.90
18611;DHT22;9435;52.122;5.502;2023-03-23T11:01:18;13.50;99.90
18611;DHT22;9435;52.122;5.502;2023-03-23T11:03:48;13.40;99.90
18611;DHT22;9435;52.122;5.502;2023-03-23T11:06:20;13.30;99.90
18611;DHT22;9435;52.122;5.502;2023-03-23T11:08:52;13.20;99.90
18611;DHT22;9435;52.122;5.502;2023-03-23T11:11:26;13.10;99.90
18611;DHT22;9435;52.122;5.502;2023-03-23T11:13:58;13.10;99.90
18611;DHT22;9435;52.122;5.502;2023-03-23T11:16:27;13.20;99.90
18611;DHT22;9435;52.122;5.502;2023-03-23T11:18:55;13.80;99.90
18611;DHT22;9435;52.122;5.502;2023-03-23T11:21:23;14.00;99.90
18611;DHT22;9435;52.122;5.502;2023-03-23T11:23:54;13.90;99.90
18611;DHT22;9435;52.122;5.502;2023-03-23T11:26:26;14.00;99.90
18611;DHT22;9435;52.122;5.502;2023-03-23T11:28:57;13.70;99.90
18611;DHT22;9435;52.122;5.502;2023-03-23T11:31:28;13.60;99.90
18611;DHT22;9435;52.122;5.502;2023-03-23T11:33:58;13.50;99.90
18611;DHT22;9435;52.122;5.502;2023-03-23T11:36:31;13.80;99.90
18611;DHT22;9435;52.122;5.502;2023-03-23T11:38:59;14.10;99.90
18611;DHT22;9435;52.122;5.502;2023-03-23T11:41:33;14.30;99.90
18611;DHT22;9435;52.122;5.502;2023-03-23T11:44:08;14.40;99.90
18611;DHT22;9435;52.122;5.502;2023-03-23T11:46:42;14.30;99.90
18611;DHT22;9435;52.122;5.502;2023-03-23T11:49:20;13.90;99.90
18611;DHT22;9435;52.122;5.502;2023-03-23T11:51:49;13.70;99.90
18611;DHT22;9435;52.122;5.502;2023-03-23T11:54:21;13.60;99.90
18611;DHT22;9435;52.122;5.502;2023-03-23T11:56:53;13.60;99.90
18611;DHT22;9435;52.122;5.502;2023-03-23T11:59:28;13.70;99.90
18611;DHT22;9435;52.122;5.502;2023-03-23T12:02:01;13.70;99.90
18611;DHT22;9435;52.122;5.502;2023-03-23T12:04:55;13.60;99.90
18611;DHT22;9435;52.122;5.502;2023-03-23T12:07:50;13.40;99.90
18611;DHT22;9435;52.122;5.502;2023-03-23T12:10:25;13.20;99.90
18611;DHT22;9435;52.122;5.502;2023-03-23T12:15:53;12.90;99.90
18611;DHT22;9435;52.122;5.502;2023-03-23T12:18:40;12.90;99.90
18611;DHT22;9435;52.122;5.502;2023-03-23T12:21:18;13.30;99.90
18611;DHT22;9435;52.122;5.502;2023-03-23T12:23:56;13.50;99.90
18611;DHT22;9435;52.122;5.502;2023-03-23T12:26:27;13.70;99.90
18611;DHT22;9435;52.122;5.502;2023-03-23T12:29:31;13.90;99.90
18611;DHT22;9435;52.122;5.502;2023-03-23T12:32:30;13.90;99.90
18611;DHT22;9435;52.122;5.502;2023-03-23T12:35:08;13.90;99.90
18611;DHT22;9435;52.122;5.502;2023-03-23T12:37:48;13.90;99.90
18611;DHT22;9435;52.122;5.502;2023-03-23T12:40:51;13.90;99.90
18611;DHT22;9435;52.122;5.502;2023-03-23T12:43:27;13.90;99.90
18611;DHT22;9435;52.122;5.502;2023-03-23T12:46:12;13.90;99.90
18611;DHT22;9435;52.122;5.502;2023-03-23T12:48:44;14.00;99.90
18611;DHT22;9435;52.122;5.502;2023-03-23T12:51:19;14.10;99.90
18611;DHT22;9435;52.122;5.502;2023-03-23T12:53:55;14.20;99.90
18611;DHT22;9435;52.122;5.502;2023-03-23T12:56:28;14.70;99.90
18611;DHT22;9435;52.122;5.502;2023-03-23T12:59:01;14.90;99.90
18611;DHT22;9435;52.122;5.502;2023-03-23T13:01:35;15.00;99.90
18611;DHT22;9435;52.122;5.502;2023-03-23T13:04:07;15.00;99.90
18611;DHT22;9435;52.122;5.502;2023-03-23T13:06:38;15.10;99.90
18611;DHT22;9435;52.122;5.502;2023-03-23T13:09:10;15.10;99.90
18611;DHT22;9435;52.122;5.502;2023-03-23T13:11:40;15.20;99.90
18611;DHT22;9435;52.122;5.502;2023-03-23T13:14:27;14.80;99.90
18611;DHT22;9435;52.122;5.502;2023-03-23T13:17:03;14.70;99.90
18611;DHT22;9435;52.122;5.502;2023-03-23T13:19:44;14.70;99.90
18611;DHT22;9435;52.122;5.502;2023-03-23T13:22:17;14.90;99.90
18611;DHT22;9435;52.122;5.502;2023-03-23T13:24:53;14.90;99.90
18611;DHT22;9435;52.122;5.502;2023-03-23T13:27:23;15.00;99.90
18611;DHT22;9435;52.122;5.502;2023-03-23T13:29:51;14.80;99.90
18611;DHT22;9435;52.122;5.502;2023-03-23T13:32:20;14.80;99.90
18611;DHT22;9435;52.122;5.502;2023-03-23T13:34:48;14.60;99.90
18611;DHT22;9435;52.122;5.502;2023-03-23T13:37:21;14.50;99.90
18611;DHT22;9435;52.122;5.502;2023-03-23T13:39:52;14.50;99.90
18611;DHT22;9435;52.122;5.502;2023-03-23T13:42:23;14.40;99.90
18611;DHT22;9435;52.122;5.502;2023-03-23T13:45:06;14.30;99.90
18611;DHT22;9435;52.122;5.502;2023-03-23T13:47:39;14.30;99.90
18611;DHT22;9435;52.122;5.502;2023-03-23T13:50:26;14.30;99.90
18611;DHT22;9435;52.122;5.502;2023-03-23T13:52:58;14.20;99.90
18611;DHT22;9435;52.122;5.502;2023-03-23T13:55:40;14.20;99.90
18611;DHT22;9435;52.122;5.502;2023-03-23T13:58:21;14.20;99.90
18611;DHT22;9435;52.122;5.502;2023-03-23T14:01:01;14.20;99.90
18611;DHT22;9435;52.122;5.502;2023-03-23T14:03:37;14.20;99.90
18611;DHT22;9435;52.122;5.502;2023-03-23T14:06:07;14.20;99.90
18611;DHT22;9435;52.122;5.502;2023-03-23T14:08:40;14.20;99.90
18611;DHT22;9435;52.122;5.502;2023-03-23T14:11:16;14.10;99.90
18611;DHT22;9435;52.122;5.502;2023-03-23T14:13:50;13.90;99.90
18611;DHT22;9435;52.122;5.502;2023-03-23T14:16:21;13.70;99.90
18611;DHT22;9435;52.122;5.502;2023-03-23T14:18:53;13.60;99.90
18611;DHT22;9435;52.122;5.502;2023-03-23T14:21:32;13.40;99.90
18611;DHT22;9435;52.122;5.502;2023-03-23T14:24:05;13.20;99.90
18611;DHT22;9435;52.122;5.502;2023-03-23T14:26:34;13.00;99.90
18611;DHT22;9435;52.122;5.502;2023-03-23T14:29:03;13.00;99.90
18611;DHT22;9435;52.122;5.502;2023-03-23T14:31:31;13.30;99.90
18611;DHT22;9435;52.122;5.502;2023-03-23T14:34:04;13.30;99.90
18611;DHT22;9435;52.122;5.502;2023-03-23T14:36:34;13.20;99.90
18611;DHT22;9435;52.122;5.502;2023-03-23T14:39:07;13.30;99.90
18611;DHT22;9435;52.122;5.502;2023-03-23T14:41:36;13.40;99.90
18611;DHT22;9435;52.122;5.502;2023-03-23T14:44:07;13.40;99.90
18611;DHT22;9435;52.122;5.502;2023-03-23T14:46:35;13.70;99.90
18611;DHT22;9435;52.122;5.502;2023-03-23T14:49:05;13.90;99.90
18611;DHT22;9435;52.122;5.502;2023-03-23T14:51:32;14.10;99.90
18611;DHT22;9435;52.122;5.502;2023-03-23T14:54:00;14.30;99.90
18611;DHT22;9435;52.122;5.502;2023-03-23T14:56:34;14.40;99.90
18611;DHT22;9435;52.122;5.502;2023-03-23T14:59:05;14.40;99.90
18611;DHT22;9435;52.122;5.502;2023-03-23T15:01:36;14.30;99.90
18611;DHT22;9435;52.122;5.502;2023-03-23T15:04:07;14.20;99.90
18611;DHT22;9435;52.122;5.502;2023-03-23T15:06:37;14.10;99.90
18611;DHT22;9435;52.122;5.502;2023-03-23T15:09:12;14.20;99.90
18611;DHT22;9435;52.122;5.502;2023-03-23T15:11:40;14.20;99.90
18611;DHT22;9435;52.122;5.502;2023-03-23T15:14:14;14.30;99.90
18611;DHT22;9435;52.122;5.502;2023-03-23T15:16:46;14.30;99.90
18611;DHT22;9435;52.122;5.502;2023-03-23T15:19:17;14.40;99.90
18611;DHT22;9435;52.122;5.502;2023-03-23T15:21:51;14.40;99.90
18611;DHT22;9435;52.122;5.502;2023-03-23T15:24:34;14.50;99.90
18611;DHT22;9435;52.122;5.502;2023-03-23T15:27:12;14.70;99.90
18611;DHT22;9435;52.122;5.502;2023-03-23T15:29:48;14.70;99.90
18611;DHT22;9435;52.122;5.502;2023-03-23T15:32:23;14.80;99.90
18611;DHT22;9435;52.122;5.502;2023-03-23T15:34:53;14.80;99.90
18611;DHT22;9435;52.122;5.502;2023-03-23T15:37:24;14.70;99.90
18611;DHT22;9435;52.122;5.502;2023-03-23T15:39:52;14.70;99.90
18611;DHT22;9435;52.122;5.502;2023-03-23T15:42:23;14.60;99.90
18611;DHT22;9435;52.122;5.502;2023-03-23T15:47:45;14.70;99.90
18611;DHT22;9435;52.122;5.502;2023-03-23T15:50:16;14.70;99.90
18611;DHT22;9435;52.122;5.502;2023-03-23T15:52:44;14.80;99.90
18611;DHT22;9435;52.122;5.502;2023-03-23T15:55:21;14.80;99.90
18611;DHT22;9435;52.122;5.502;2023-03-23T15:57:48;14.70;99.90
18611;DHT22;9435;52.122;5.502;2023-03-23T16:00:16;14.60;99.90
18611;DHT22;9435;52.122;5.502;2023-03-23T16:02:45;14.60;99.90
18611;DHT22;9435;52.122;5.502;2023-03-23T16:05:14;14.70;99.90
18611;DHT22;9435;52.122;5.502;2023-03-23T16:07:41;14.60;99.90
18611;DHT22;9435;52.122;5.502;2023-03-23T16:10:15;14.60;99.90
18611;DHT22;9435;52.122;5.502;2023-03-23T16:12:42;14.50;99.90
18611;DHT22;9435;52.122;5.502;2023-03-23T16:15:10;14.50;99.90
18611;DHT22;9435;52.122;5.502;2023-03-23T16:17:37;14.50;99.90